臺北飛航情報區 - 掃描席(區管/近場)

METAR RCTP 170400Z 08019KT 9999 FEW020 36/25 Q1000 WS ALL RWY NOSIG RMK QFF 1000.5HPA A2955=

站台狀態:Online
最後更新:2019-07-17 12:15:01